Time;durP1;ratioP1;P1;durP2;ratioP2;P2;SDS_P1;SDS_P2;PMS_P1;PMS_P2;Temp;Humidity;BMP_temperature;BMP_pressure;BME280_temperature;BME280_humidity;BME280_pressure;Samples;Min_cycle;Max_cycle;Signal;HPM_P1;HPM_P2
2022/07/09 00:01:21;;;;;;;5.10;1.67;;;14.60;99.90;;;;;;5075894;28;20221;-60
2022/07/09 00:03:51;;;;;;;5.20;1.67;;;14.50;99.90;;;;;;5075537;28;20680;-61
2022/07/09 00:06:17;;;;;;;5.93;2.27;;;14.60;99.90;;;;;;5075843;28;20212;-60
2022/07/09 00:08:44;;;;;;;3.40;1.70;;;14.50;99.90;;;;;;5075619;28;20212;-61
2022/07/09 00:11:11;;;;;;;4.90;1.73;;;14.50;99.90;;;;;;5075389;28;20251;-60
2022/07/09 00:13:38;;;;;;;3.13;1.70;;;14.60;99.90;;;;;;5075464;28;20568;-60
2022/07/09 00:16:05;;;;;;;2.73;1.83;;;14.60;99.90;;;;;;5075704;28;20209;-60
2022/07/09 00:18:32;;;;;;;3.40;1.60;;;14.70;99.90;;;;;;5075699;28;20232;-60
2022/07/09 00:21:00;;;;;;;2.40;1.73;;;14.70;99.90;;;;;;5075730;28;20231;-60
2022/07/09 00:23:26;;;;;;;6.67;2.10;;;14.60;99.90;;;;;;5075733;28;20211;-61
2022/07/09 00:25:53;;;;;;;3.70;1.60;;;14.60;99.90;;;;;;5075736;28;20212;-61
2022/07/09 00:28:20;;;;;;;3.77;2.20;;;14.60;99.90;;;;;;5075631;28;20216;-61
2022/07/09 00:30:47;;;;;;;3.93;1.80;;;14.50;99.90;;;;;;5075873;28;20220;-61
2022/07/09 00:33:14;;;;;;;4.40;1.83;;;14.50;99.90;;;;;;5075652;28;20587;-61
2022/07/09 00:35:40;;;;;;;3.53;1.60;;;14.50;99.90;;;;;;5075244;28;20205;-61
2022/07/09 00:38:09;;;;;;;5.83;2.20;;;14.40;99.90;;;;;;5074567;28;20221;-61
2022/07/09 00:40:35;;;;;;;5.00;2.03;;;14.40;99.90;;;;;;5074907;28;20618;-60
2022/07/09 00:43:02;;;;;;;5.00;2.13;;;14.40;99.90;;;;;;5075259;28;20201;-61
2022/07/09 00:45:29;;;;;;;3.90;2.17;;;14.40;99.90;;;;;;5075462;28;20259;-61
2022/07/09 00:47:56;;;;;;;6.43;2.13;;;14.40;99.90;;;;;;5075285;28;20216;-61
2022/07/09 00:50:23;;;;;;;4.13;2.10;;;14.30;99.90;;;;;;5075318;28;20602;-61
2022/07/09 00:52:50;;;;;;;4.77;2.00;;;14.30;99.90;;;;;;5075442;28;20319;-60
2022/07/09 00:55:18;;;;;;;5.17;1.73;;;14.10;99.90;;;;;;5075070;28;20204;-61
2022/07/09 00:57:45;;;;;;;4.23;1.50;;;14.10;99.90;;;;;;5074953;28;20220;-62
2022/07/09 01:00:13;;;;;;;4.03;1.97;;;14.10;99.90;;;;;;5074883;28;20224;-60
2022/07/09 01:02:41;;;;;;;4.83;2.10;;;14.10;99.90;;;;;;5075426;28;20216;-60
2022/07/09 01:05:09;;;;;;;2.97;1.63;;;14.00;99.90;;;;;;5076247;28;20208;-61
2022/07/09 01:07:36;;;;;;;3.13;1.83;;;13.90;99.90;;;;;;5076972;28;20209;-63
2022/07/09 01:10:03;;;;;;;5.70;1.87;;;13.90;99.90;;;;;;5076575;28;20205;-61
2022/07/09 01:12:32;;;;;;;2.73;1.77;;;13.90;99.90;;;;;;5077155;28;20216;-61
2022/07/09 01:14:59;;;;;;;3.53;2.13;;;13.80;99.90;;;;;;5076248;28;20201;-61
2022/07/09 01:17:26;;;;;;;5.40;1.80;;;13.80;99.90;;;;;;5075051;28;20220;-61
2022/07/09 01:19:54;;;;;;;3.90;1.90;;;13.80;99.90;;;;;;5075414;28;20229;-61
2022/07/09 01:22:22;;;;;;;5.80;1.87;;;13.70;99.90;;;;;;5074957;28;20201;-61
2022/07/09 01:24:50;;;;;;;2.70;1.70;;;13.50;99.90;;;;;;5074744;28;20207;-61
2022/07/09 01:27:17;;;;;;;3.80;1.80;;;13.50;99.90;;;;;;5074444;28;20235;-61
2022/07/09 01:29:49;;;;;;;2.73;2.10;;;13.50;99.90;;;;;;5074147;28;20208;-61
2022/07/09 01:32:16;;;;;;;5.03;2.03;;;13.40;99.90;;;;;;5074202;28;20283;-61
2022/07/09 01:34:42;;;;;;;4.47;2.03;;;13.50;99.90;;;;;;5074250;28;20416;-61
2022/07/09 01:37:09;;;;;;;3.47;2.43;;;13.50;99.90;;;;;;5074081;28;20205;-61
2022/07/09 01:39:49;;;;;;;5.53;1.90;;;13.50;99.90;;;;;;5074134;28;20232;-61
2022/07/09 01:42:16;;;;;;;2.60;1.80;;;13.60;99.90;;;;;;5074711;28;20233;-61
2022/07/09 01:44:43;;;;;;;4.07;1.90;;;13.50;99.90;;;;;;5077165;28;20213;-60
2022/07/09 01:47:10;;;;;;;5.87;2.17;;;13.50;99.90;;;;;;5079154;28;20215;-60
2022/07/09 01:49:36;;;;;;;4.53;1.90;;;13.40;99.90;;;;;;5078374;28;20200;-61
2022/07/09 01:52:05;;;;;;;6.70;2.10;;;13.40;99.90;;;;;;5074963;28;20593;-60
2022/07/09 01:54:31;;;;;;;6.13;2.23;;;13.40;99.90;;;;;;5074334;28;20201;-60
2022/07/09 01:56:59;;;;;;;3.73;1.90;;;13.30;99.90;;;;;;5074170;28;20209;-60
2022/07/09 01:59:26;;;;;;;4.03;2.37;;;13.30;99.90;;;;;;5073892;28;20221;-61
2022/07/09 02:01:53;;;;;;;4.20;1.90;;;13.30;99.90;;;;;;5073958;28;20232;-61
2022/07/09 02:04:19;;;;;;;4.03;2.00;;;13.30;99.90;;;;;;5073975;28;20216;-61
2022/07/09 02:06:46;;;;;;;9.77;2.30;;;13.30;99.90;;;;;;5073949;28;20208;-61
2022/07/09 02:09:13;;;;;;;4.40;1.83;;;13.10;99.90;;;;;;5073833;28;20201;-61
2022/07/09 02:11:39;;;;;;;5.20;2.03;;;12.90;99.90;;;;;;5073704;28;20770;-61
2022/07/09 02:14:07;;;;;;;3.73;1.80;;;12.90;99.90;;;;;;5074373;28;20201;-61
2022/07/09 02:16:34;;;;;;;3.03;1.80;;;12.90;99.90;;;;;;5074402;28;20689;-61
2022/07/09 02:19:01;;;;;;;2.30;1.90;;;13.00;99.90;;;;;;5073747;28;20646;-61
2022/07/09 02:21:27;;;;;;;7.17;2.40;;;13.10;99.90;;;;;;5073582;28;20229;-61
2022/07/09 02:23:58;;;;;;;4.23;2.20;;;13.10;99.90;;;;;;5073562;28;20212;-61
2022/07/09 02:26:25;;;;;;;7.00;2.33;;;13.10;99.90;;;;;;5073757;28;20673;-61
2022/07/09 02:28:52;;;;;;;3.50;1.90;;;13.20;99.90;;;;;;5073426;28;20697;-60
2022/07/09 02:31:20;;;;;;;4.90;2.30;;;13.20;99.90;;;;;;5074119;28;20316;-60
2022/07/09 02:33:47;;;;;;;4.30;2.27;;;13.20;99.90;;;;;;5074253;28;20205;-61
2022/07/09 02:36:14;;;;;;;3.17;2.03;;;13.20;99.90;;;;;;5074569;28;20620;-60
2022/07/09 02:38:40;;;;;;;6.50;1.93;;;13.20;99.90;;;;;;5073101;28;20200;-60
2022/07/09 02:41:07;;;;;;;3.03;2.03;;;13.30;99.90;;;;;;5073034;28;20637;-60
2022/07/09 02:43:34;;;;;;;3.73;2.40;;;13.30;99.90;;;;;;5073295;28;20810;-61
2022/07/09 02:46:01;;;;;;;4.80;2.77;;;13.40;99.90;;;;;;5073532;28;20201;-60
2022/07/09 02:48:29;;;;;;;5.97;2.07;;;13.40;99.90;;;;;;5073436;28;20208;-60
2022/07/09 02:50:56;;;;;;;6.60;2.20;;;13.40;99.90;;;;;;5073886;28;20229;-60
2022/07/09 02:53:23;;;;;;;4.50;1.80;;;13.40;99.90;;;;;;5074075;28;20211;-60
2022/07/09 02:55:49;;;;;;;5.43;2.10;;;13.40;99.90;;;;;;5073881;28;20211;-60
2022/07/09 02:58:16;;;;;;;5.10;2.47;;;13.40;99.90;;;;;;5073388;28;20214;-60
2022/07/09 03:00:43;;;;;;;3.70;1.87;;;13.40;99.90;;;;;;5073732;28;20229;-60
2022/07/09 03:03:10;;;;;;;4.80;2.30;;;13.30;99.90;;;;;;5074016;28;20200;-60
2022/07/09 03:05:38;;;;;;;4.80;2.60;;;13.30;99.90;;;;;;5073383;28;20212;-65
2022/07/09 03:08:08;;;;;;;3.97;2.30;;;13.30;99.90;;;;;;5073188;28;20678;-61
2022/07/09 03:10:35;;;;;;;4.60;2.10;;;13.20;99.90;;;;;;5073285;28;20592;-60
2022/07/09 03:13:02;;;;;;;7.00;2.00;;;13.20;99.90;;;;;;5073364;28;20688;-60
2022/07/09 03:15:28;;;;;;;4.53;2.07;;;13.20;99.90;;;;;;5073187;28;20209;-61
2022/07/09 03:17:55;;;;;;;4.57;1.90;;;13.20;99.90;;;;;;5072644;28;20216;-61
2022/07/09 03:20:22;;;;;;;3.67;1.97;;;13.20;99.90;;;;;;5072555;28;20258;-61
2022/07/09 03:22:50;;;;;;;8.27;2.63;;;13.20;99.90;;;;;;5072517;28;20209;-61
2022/07/09 03:25:17;;;;;;;3.07;1.83;;;13.20;99.90;;;;;;5072313;28;20247;-61
2022/07/09 03:27:44;;;;;;;4.97;2.17;;;13.30;99.90;;;;;;5073003;28;20649;-61
2022/07/09 03:30:12;;;;;;;4.30;2.40;;;13.30;99.90;;;;;;5075581;28;20587;-61
2022/07/09 03:32:39;;;;;;;3.97;2.20;;;13.30;99.90;;;;;;5076236;28;20296;-61
2022/07/09 03:35:06;;;;;;;4.77;2.50;;;13.30;99.90;;;;;;5073871;28;20232;-61
2022/07/09 03:37:33;;;;;;;3.43;2.27;;;13.30;99.90;;;;;;5072394;28;20213;-61
2022/07/09 03:40:02;;;;;;;3.43;1.90;;;13.30;99.90;;;;;;5071969;28;20220;-60
2022/07/09 03:42:28;;;;;;;4.33;2.00;;;13.20;99.90;;;;;;5095102;22;20241;-61
2022/07/09 03:44:55;;;;;;;4.13;2.30;;;13.20;99.90;;;;;;5071640;28;20201;-61
2022/07/09 03:47:22;;;;;;;4.10;2.00;;;13.30;99.90;;;;;;5071257;28;20205;-62
2022/07/09 03:49:49;;;;;;;4.13;2.57;;;13.20;99.90;;;;;;5071480;28;20203;-61
2022/07/09 03:52:16;;;;;;;3.53;2.50;;;13.20;99.90;;;;;;5071182;28;20632;-61
2022/07/09 03:54:43;;;;;;;4.40;2.03;;;13.30;99.90;;;;;;5071616;28;20204;-61
2022/07/09 03:57:11;;;;;;;2.67;2.00;;;13.20;99.90;;;;;;5071556;28;20262;-61
2022/07/09 03:59:38;;;;;;;4.13;2.13;;;13.30;99.90;;;;;;5071124;28;20229;-62
2022/07/09 04:02:06;;;;;;;3.57;2.03;;;13.40;99.90;;;;;;5071437;28;20252;-61
2022/07/09 04:04:33;;;;;;;3.73;2.40;;;13.40;99.90;;;;;;5071299;28;20217;-61
2022/07/09 04:06:59;;;;;;;4.23;1.87;;;13.50;99.90;;;;;;5071500;28;20550;-61
2022/07/09 04:09:27;;;;;;;2.63;2.20;;;13.50;99.90;;;;;;5071630;28;20741;-61
2022/07/09 04:11:53;;;;;;;2.97;1.80;;;13.50;99.90;;;;;;5071753;28;20281;-61
2022/07/09 04:14:21;;;;;;;3.27;2.00;;;13.60;99.90;;;;;;5075411;28;20209;-61
2022/07/09 04:16:48;;;;;;;2.57;1.70;;;13.60;99.90;;;;;;5075032;28;20250;-61
2022/07/09 04:19:15;;;;;;;3.80;1.90;;;13.60;99.90;;;;;;5074804;28;20254;-61
2022/07/09 04:21:41;;;;;;;3.40;2.30;;;13.50;99.90;;;;;;5074724;28;20229;-61
2022/07/09 04:24:08;;;;;;;4.07;2.00;;;13.70;99.90;;;;;;5074821;28;20620;-61
2022/07/09 04:26:35;;;;;;;5.47;2.10;;;13.90;99.90;;;;;;5074993;28;20201;-61
2022/07/09 04:29:01;;;;;;;3.50;1.90;;;14.10;99.90;;;;;;5075008;28;20205;-61
2022/07/09 04:31:29;;;;;;;2.57;2.03;;;14.30;99.90;;;;;;5074859;28;20232;-61
2022/07/09 04:33:56;;;;;;;2.70;2.00;;;14.50;99.90;;;;;;5075028;28;20707;-60
2022/07/09 04:36:23;;;;;;;4.43;2.20;;;14.70;99.90;;;;;;5074446;28;20204;-61
2022/07/09 04:38:49;;;;;;;4.80;2.17;;;14.80;99.90;;;;;;5074391;28;20205;-62
2022/07/09 04:41:16;;;;;;;3.33;1.90;;;14.90;99.90;;;;;;5074354;28;20258;-62
2022/07/09 04:43:43;;;;;;;3.07;2.03;;;15.10;99.90;;;;;;5074430;28;20209;-62
2022/07/09 04:46:10;;;;;;;2.73;1.77;;;15.30;99.90;;;;;;5074349;28;20208;-63
2022/07/09 04:48:38;;;;;;;3.97;2.07;;;15.40;99.90;;;;;;5074009;28;20212;-63
2022/07/09 04:51:05;;;;;;;3.60;1.90;;;15.60;99.90;;;;;;5074243;28;20221;-61
2022/07/09 04:53:31;;;;;;;5.03;2.00;;;15.80;99.90;;;;;;5074243;28;20216;-61
2022/07/09 04:55:58;;;;;;;3.20;2.00;;;16.00;99.90;;;;;;5074234;28;20677;-62
2022/07/09 04:58:25;;;;;;;4.27;2.07;;;16.20;99.90;;;;;;5074128;28;20262;-62
2022/07/09 05:00:52;;;;;;;4.10;2.03;;;16.40;99.90;;;;;;5073931;28;20608;-62
2022/07/09 05:03:18;;;;;;;2.60;1.60;;;16.90;99.90;;;;;;5074064;28;20213;-62
2022/07/09 05:05:46;;;;;;;5.07;1.85;;;17.40;99.90;;;;;;5074162;28;20209;-62
2022/07/09 05:08:13;;;;;;;2.72;1.83;;;18.00;99.90;;;;;;5073774;28;20262;-62
2022/07/09 05:10:40;;;;;;;3.75;1.80;;;18.90;99.90;;;;;;5073904;28;20574;-62
2022/07/09 05:13:06;;;;;;;4.28;1.73;;;19.90;99.90;;;;;;5073763;28;20209;-63
2022/07/09 05:15:33;;;;;;;3.00;2.13;;;20.50;99.90;;;;;;5073680;28;20216;-62
2022/07/09 05:18:00;;;;;;;3.28;1.48;;;21.50;99.90;;;;;;5073382;28;20258;-62
2022/07/09 05:20:27;;;;;;;3.33;1.67;;;22.60;99.90;;;;;;5073636;28;20802;-62
2022/07/09 05:22:55;;;;;;;3.13;1.70;;;23.70;99.90;;;;;;5073354;28;20201;-62
2022/07/09 05:25:22;;;;;;;3.78;1.75;;;24.90;97.20;;;;;;5072783;28;20200;-61
2022/07/09 05:27:49;;;;;;;2.20;1.50;;;26.10;93.50;;;;;;5073339;28;20205;-62
2022/07/09 05:30:16;;;;;;;3.55;1.55;;;27.30;90.00;;;;;;5073456;28;20208;-62
2022/07/09 05:32:43;;;;;;;3.53;1.60;;;28.20;84.80;;;;;;5073902;28;20204;-62
2022/07/09 05:35:10;;;;;;;3.90;1.52;;;29.10;79.60;;;;;;5073358;28;20688;-60
2022/07/09 05:37:42;;;;;;;3.30;1.90;;;29.70;73.60;;;;;;5073139;28;20211;-60
2022/07/09 05:40:12;;;;;;;2.63;1.50;;;29.90;72.30;;;;;;5073285;28;20224;-61
2022/07/09 05:42:40;;;;;;;4.07;1.63;;;29.50;71.70;;;;;;5072984;28;20239;-61
2022/07/09 05:45:08;;;;;;;3.83;1.73;;;29.50;70.60;;;;;;5073132;28;20270;-61
2022/07/09 05:47:34;;;;;;;3.50;1.63;;;30.10;68.40;;;;;;5073087;28;20205;-62
2022/07/09 05:50:01;;;;;;;4.18;1.60;;;31.00;64.20;;;;;;5073225;28;20238;-62
2022/07/09 05:52:28;;;;;;;6.05;1.60;;;31.40;63.00;;;;;;5072840;28;20255;-61
2022/07/09 05:54:54;;;;;;;3.35;1.67;;;31.60;60.60;;;;;;5072998;28;20209;-61
2022/07/09 05:57:22;;;;;;;6.20;1.77;;;31.90;59.40;;;;;;5072818;28;20216;-62
2022/07/09 05:59:49;;;;;;;2.72;1.45;;;32.20;58.90;;;;;;5072700;28;20205;-61
2022/07/09 06:02:16;;;;;;;3.75;1.48;;;32.60;57.60;;;;;;5072904;28;20224;-61
2022/07/09 06:04:42;;;;;;;2.88;1.42;;;33.40;56.40;;;;;;5072734;28;20251;-61
2022/07/09 06:07:10;;;;;;;4.22;1.70;;;33.90;55.10;;;;;;5072573;28;20209;-62
2022/07/09 06:09:36;;;;;;;4.78;2.30;;;34.40;54.10;;;;;;5072338;28;20646;-61
2022/07/09 06:12:04;;;;;;;3.65;1.63;;;34.70;53.40;;;;;;5072259;28;20221;-61
2022/07/09 06:14:32;;;;;;;4.15;1.92;;;35.30;51.50;;;;;;5072853;28;20209;-61
2022/07/09 06:17:05;;;;;;;6.30;1.45;;;35.50;50.70;;;;;;5072498;28;20240;-61
2022/07/09 06:19:32;;;;;;;2.83;1.70;;;35.80;50.10;;;;;;5072215;28;20205;-61
2022/07/09 06:21:59;;;;;;;2.50;1.30;;;36.30;49.60;;;;;;5072455;28;20233;-61
2022/07/09 06:24:26;;;;;;;4.65;1.60;;;36.60;47.80;;;;;;5072568;28;20208;-62
2022/07/09 06:26:53;;;;;;;4.75;2.20;;;36.70;47.70;;;;;;5073164;28;20205;-61
2022/07/09 06:29:19;;;;;;;4.50;1.85;;;36.60;47.30;;;;;;5072577;28;20231;-61
2022/07/09 06:31:47;;;;;;;2.78;1.40;;;36.90;46.70;;;;;;5072408;28;20701;-61
2022/07/09 06:34:14;;;;;;;4.03;1.70;;;37.90;45.90;;;;;;5072644;28;20209;-62
2022/07/09 06:36:44;;;;;;;3.03;1.38;;;38.80;43.50;;;;;;5071923;28;20277;-62
2022/07/09 06:41:55;;;;;;;3.78;1.60;;;38.60;43.90;;;;;;5072089;28;20231;-61
2022/07/09 06:44:21;;;;;;;5.20;2.20;;;39.30;42.90;;;;;;5072124;28;20208;-62
2022/07/09 06:46:49;;;;;;;3.47;1.50;;;40.00;42.50;;;;;;5072033;28;20204;-61
2022/07/09 06:49:16;;;;;;;4.85;1.70;;;40.10;41.20;;;;;;5071704;28;20204;-62
2022/07/09 06:51:43;;;;;;;6.82;1.90;;;40.40;40.40;;;;;;5072336;28;20221;-61
2022/07/09 06:54:10;;;;;;;3.47;1.55;;;41.00;40.00;;;;;;5072202;28;20282;-61
2022/07/09 06:56:37;;;;;;;3.38;1.60;;;40.60;40.20;;;;;;5072065;28;20211;-61
2022/07/09 06:59:03;;;;;;;7.07;1.83;;;39.90;40.80;;;;;;5071891;28;20205;-61
2022/07/09 07:01:30;;;;;;;4.75;1.60;;;39.90;40.40;;;;;;5071738;28;20232;-61
2022/07/09 07:03:58;;;;;;;2.75;1.63;;;39.90;40.60;;;;;;5071859;28;20267;-61
2022/07/09 07:06:25;;;;;;;5.07;2.00;;;39.40;41.30;;;;;;5072239;28;20209;-62
2022/07/09 07:08:51;;;;;;;4.70;1.75;;;38.60;42.30;;;;;;5072106;28;20720;-61
2022/07/09 07:11:18;;;;;;;3.55;1.70;;;36.60;44.70;;;;;;5071874;28;20225;-62
2022/07/09 07:13:45;;;;;;;4.28;1.40;;;35.80;45.80;;;;;;5071863;28;20236;-61
2022/07/09 07:16:11;;;;;;;3.38;1.75;;;35.20;46.30;;;;;;5071699;28;20638;-62
2022/07/09 07:18:38;;;;;;;4.85;1.85;;;34.50;47.40;;;;;;5071497;28;20220;-61
2022/07/09 07:21:06;;;;;;;6.88;1.70;;;34.20;48.30;;;;;;5071864;28;20290;-62
2022/07/09 07:23:33;;;;;;;5.55;1.60;;;34.40;48.50;;;;;;5071810;28;20209;-62
2022/07/09 07:26:00;;;;;;;3.15;1.55;;;34.90;47.60;;;;;;5071580;28;20205;-61
2022/07/09 07:28:27;;;;;;;4.95;1.70;;;35.70;46.90;;;;;;5071528;28;20452;-62
2022/07/09 07:30:55;;;;;;;3.08;1.60;;;36.40;45.70;;;;;;5072006;28;20563;-61
2022/07/09 07:33:21;;;;;;;4.10;1.88;;;37.10;44.70;;;;;;5071455;28;20485;-62
2022/07/09 07:35:48;;;;;;;4.30;1.90;;;37.50;44.10;;;;;;5071888;28;20224;-62
2022/07/09 07:38:17;;;;;;;5.00;1.88;;;38.10;43.70;;;;;;5071401;28;20209;-62
2022/07/09 07:40:43;;;;;;;6.07;1.80;;;38.50;43.00;;;;;;5071566;28;20319;-62
2022/07/09 07:43:11;;;;;;;4.25;1.67;;;38.20;42.30;;;;;;5071795;28;20306;-62
2022/07/09 07:45:38;;;;;;;5.65;1.92;;;37.50;43.20;;;;;;5071236;28;20296;-62
2022/07/09 07:48:06;;;;;;;3.28;1.65;;;36.80;43.70;;;;;;5073841;28;20205;-62
2022/07/09 07:50:32;;;;;;;4.55;1.88;;;36.10;44.60;;;;;;5075269;28;20308;-62
2022/07/09 07:52:59;;;;;;;3.03;1.55;;;36.10;45.10;;;;;;5075576;28;20204;-61
2022/07/09 07:55:27;;;;;;;3.58;1.70;;;36.90;44.10;;;;;;5075216;28;20258;-62
2022/07/09 07:57:54;;;;;;;4.70;1.70;;;38.00;42.30;;;;;;5074993;28;20201;-62
2022/07/09 08:00:22;;;;;;;4.75;1.95;;;38.70;41.70;;;;;;5074949;28;20212;-62
2022/07/09 08:02:48;;;;;;;3.05;1.73;;;39.10;41.70;;;;;;5075422;28;20211;-61
2022/07/09 08:05:15;;;;;;;4.45;1.48;;;38.80;41.70;;;;;;5074913;28;20628;-60
2022/07/09 08:07:42;;;;;;;3.13;1.60;;;37.90;43.20;;;;;;5074925;28;20228;-60
2022/07/09 08:10:09;;;;;;;5.72;1.50;;;37.80;43.40;;;;;;5074606;28;20574;-60
2022/07/09 08:12:37;;;;;;;3.40;1.92;;;38.40;42.60;;;;;;5074757;28;20634;-61
2022/07/09 08:15:05;;;;;;;4.68;1.60;;;39.10;41.50;;;;;;5074718;28;20216;-61
2022/07/09 08:17:32;;;;;;;7.25;1.50;;;39.90;40.90;;;;;;5074831;28;20209;-60
2022/07/09 08:19:59;;;;;;;2.58;1.38;;;40.20;40.00;;;;;;5074549;28;20255;-61
2022/07/09 08:22:26;;;;;;;3.28;1.40;;;39.50;41.40;;;;;;5074695;28;20235;-61
2022/07/09 08:24:52;;;;;;;2.95;1.50;;;39.40;41.30;;;;;;5074648;28;20263;-61
2022/07/09 08:27:19;;;;;;;3.08;1.45;;;39.30;41.20;;;;;;5074337;28;20577;-61
2022/07/09 08:29:48;;;;;;;3.38;1.50;;;39.30;41.10;;;;;;5074552;28;20212;-61
2022/07/09 08:32:15;;;;;;;2.88;1.15;;;39.70;41.00;;;;;;5074802;28;20224;-61
2022/07/09 08:34:42;;;;;;;2.90;1.25;;;40.00;40.00;;;;;;5074567;28;20212;-61
2022/07/09 08:37:09;;;;;;;3.95;1.30;;;39.10;40.90;;;;;;5074387;28;20594;-61
2022/07/09 08:39:35;;;;;;;3.58;1.00;;;39.20;40.50;;;;;;5074214;28;20209;-60
2022/07/09 08:42:04;;;;;;;3.67;1.38;;;38.80;40.90;;;;;;5074239;28;20241;-61
2022/07/09 08:44:32;;;;;;;3.50;1.27;;;37.80;42.20;;;;;;5074392;28;20225;-61
2022/07/09 08:47:01;;;;;;;3.55;1.35;;;37.00;43.50;;;;;;5074461;28;20205;-61
2022/07/09 08:49:29;;;;;;;2.55;1.00;;;36.20;44.60;;;;;;5074039;28;20664;-61
2022/07/09 08:51:56;;;;;;;4.85;1.20;;;36.00;44.90;;;;;;5074354;28;20231;-61
2022/07/09 08:54:23;;;;;;;2.45;1.00;;;35.90;44.70;;;;;;5074083;28;20678;-61
2022/07/09 08:56:51;;;;;;;4.20;1.20;;;34.50;46.70;;;;;;5074245;28;20600;-61
2022/07/09 08:59:18;;;;;;;3.05;1.17;;;32.50;49.50;;;;;;5073985;28;20209;-62
2022/07/09 09:01:45;;;;;;;2.72;1.23;;;30.80;52.50;;;;;;5074317;28;20282;-61
2022/07/09 09:04:13;;;;;;;3.70;1.00;;;29.40;54.60;;;;;;5074419;28;20242;-60
2022/07/09 09:06:40;;;;;;;2.83;1.20;;;28.30;56.70;;;;;;5074209;28;20211;-61
2022/07/09 09:09:10;;;;;;;2.28;1.17;;;27.60;58.40;;;;;;5073844;28;20261;-61
2022/07/09 09:11:38;;;;;;;2.08;1.05;;;27.30;59.30;;;;;;5074205;28;20225;-61
2022/07/09 09:14:04;;;;;;;3.42;1.33;;;27.00;60.30;;;;;;5073854;28;20251;-61
2022/07/09 09:16:31;;;;;;;3.17;1.23;;;26.50;61.80;;;;;;5074050;28;20667;-61
2022/07/09 09:18:58;;;;;;;2.08;1.10;;;26.10;62.90;;;;;;5073917;28;20655;-61
2022/07/09 09:21:26;;;;;;;4.68;1.90;;;26.00;63.10;;;;;;5073761;28;20700;-61
2022/07/09 09:23:55;;;;;;;3.13;1.02;;;26.00;63.40;;;;;;5073744;28;20680;-61
2022/07/09 09:26:23;;;;;;;3.45;1.10;;;26.10;62.70;;;;;;5073683;28;20240;-61
2022/07/09 09:28:51;;;;;;;6.57;1.05;;;26.00;63.00;;;;;;5073392;28;20236;-61
2022/07/09 09:31:20;;;;;;;3.28;0.90;;;26.00;63.60;;;;;;5073544;28;20217;-60
2022/07/09 09:33:47;;;;;;;1.90;0.80;;;25.90;64.20;;;;;;5073568;28;20200;-61
2022/07/09 09:36:28;;;;;;;4.18;0.98;;;25.60;64.80;;;;;;5073329;28;20212;-60
2022/07/09 09:38:55;;;;;;;1.75;0.80;;;25.30;65.20;;;;;;5073291;28;20212;-60
2022/07/09 09:41:23;;;;;;;2.88;0.80;;;25.10;66.20;;;;;;5097859;22;20240;-61
2022/07/09 09:43:51;;;;;;;3.67;1.10;;;25.00;66.40;;;;;;5075964;28;20275;-60
2022/07/09 09:46:19;;;;;;;4.93;1.35;;;25.20;67.30;;;;;;5075599;28;20209;-62
2022/07/09 09:48:46;;;;;;;4.40;1.33;;;25.30;67.60;;;;;;5074920;28;20581;-61
2022/07/09 09:51:15;;;;;;;2.42;0.90;;;25.30;67.40;;;;;;5075293;28;20233;-60
2022/07/09 09:53:44;;;;;;;4.35;1.10;;;25.50;66.70;;;;;;5075411;28;20262;-62
2022/07/09 09:56:11;;;;;;;1.63;0.85;;;25.70;65.10;;;;;;5075171;28;20359;-61
2022/07/09 09:58:38;;;;;;;2.33;0.80;;;25.70;65.70;;;;;;5075358;28;20703;-61
2022/07/09 10:01:05;;;;;;;2.22;0.98;;;25.80;65.70;;;;;;5075760;28;20225;-61
2022/07/09 10:03:32;;;;;;;2.55;1.17;;;26.00;65.50;;;;;;5076100;28;20672;-61
2022/07/09 10:05:58;;;;;;;3.38;1.40;;;26.20;64.70;;;;;;5077346;28;20216;-61
2022/07/09 10:08:25;;;;;;;4.05;1.15;;;26.40;64.90;;;;;;5078201;28;20209;-62
2022/07/09 10:10:53;;;;;;;3.08;1.27;;;26.60;64.50;;;;;;5074705;28;20216;-61
2022/07/09 10:13:21;;;;;;;3.25;0.90;;;26.80;63.80;;;;;;5075135;28;20205;-61
2022/07/09 10:15:50;;;;;;;7.53;1.17;;;27.00;62.80;;;;;;5075260;28;20212;-60
2022/07/09 10:18:18;;;;;;;4.93;1.10;;;27.10;62.70;;;;;;5074868;28;20661;-61
2022/07/09 10:20:45;;;;;;;2.92;0.90;;;27.30;61.80;;;;;;5074905;28;20699;-61
2022/07/09 10:23:21;;;;;;;2.13;1.33;;;27.40;61.90;;;;;;5075537;28;20581;-60
2022/07/09 10:25:50;;;;;;;3.20;0.90;;;27.30;61.10;;;;;;5076518;28;20212;-62
2022/07/09 10:28:19;;;;;;;2.15;1.10;;;27.30;60.50;;;;;;5076486;28;20259;-61
2022/07/09 10:30:47;;;;;;;4.55;1.10;;;27.10;61.90;;;;;;5076345;28;20212;-60
2022/07/09 10:33:20;;;;;;;3.85;1.27;;;27.00;62.60;;;;;;5076638;28;20254;-62
2022/07/09 10:35:49;;;;;;;2.35;1.00;;;27.00;61.00;;;;;;5076941;28;20205;-61
2022/07/09 10:38:17;;;;;;;1.40;0.80;;;27.20;59.60;;;;;;5077010;28;20772;-61
2022/07/09 10:40:45;;;;;;;2.03;1.02;;;27.30;58.60;;;;;;5077320;28;20268;-61
2022/07/09 10:43:13;;;;;;;2.03;0.80;;;27.20;59.30;;;;;;5078705;28;20232;-60
2022/07/09 10:45:43;;;;;;;3.28;1.00;;;27.30;60.00;;;;;;5077600;28;20231;-62
2022/07/09 10:48:11;;;;;;;1.90;1.17;;;27.30;59.40;;;;;;5077891;28;20208;-61
2022/07/09 10:50:40;;;;;;;2.60;1.08;;;27.60;59.20;;;;;;5077032;28;20201;-61
2022/07/09 10:53:07;;;;;;;1.92;0.80;;;28.00;59.10;;;;;;5074792;28;20205;-61
2022/07/09 10:55:35;;;;;;;1.90;1.00;;;28.20;59.10;;;;;;5075074;28;20336;-61
2022/07/09 10:58:07;;;;;;;1.90;1.15;;;28.10;59.00;;;;;;5075854;28;20220;-61
2022/07/09 11:00:34;;;;;;;3.70;1.40;;;28.30;58.40;;;;;;5074725;28;20752;-61
2022/07/09 11:03:04;;;;;;;4.10;1.35;;;28.60;57.60;;;;;;5075072;28;20426;-61
2022/07/09 11:05:32;;;;;;;2.67;1.23;;;28.90;56.40;;;;;;5075481;28;20224;-61
2022/07/09 11:08:05;;;;;;;1.58;0.98;;;29.00;56.50;;;;;;5074993;28;20200;-61
2022/07/09 11:10:33;;;;;;;2.47;1.20;;;29.30;56.40;;;;;;5074849;28;20217;-61
2022/07/09 11:13:00;;;;;;;4.22;1.35;;;29.20;57.30;;;;;;5074339;28;20221;-61
2022/07/09 11:15:29;;;;;;;5.05;3.70;;;29.00;56.50;;;;;;5074611;28;20201;-61
2022/07/09 11:18:00;;;;;;;5.35;1.70;;;29.00;57.10;;;;;;5074051;28;20295;-61
2022/07/09 11:20:30;;;;;;;4.90;3.05;;;28.80;57.50;;;;;;5073529;28;20205;-61
2022/07/09 11:22:59;;;;;;;5.78;2.92;;;28.60;57.60;;;;;;5078466;28;20229;-61
2022/07/09 11:25:27;;;;;;;5.75;2.60;;;28.60;57.20;;;;;;5077909;28;20216;-61
2022/07/09 11:27:54;;;;;;;4.22;1.90;;;28.80;56.70;;;;;;5078222;28;20208;-61
2022/07/09 11:30:21;;;;;;;3.15;1.45;;;29.10;55.90;;;;;;5079151;28;20227;-60
2022/07/09 11:32:48;;;;;;;4.25;1.30;;;29.60;54.90;;;;;;5079346;28;20307;-61
2022/07/09 11:35:25;;;;;;;1.42;0.88;;;30.00;54.10;;;;;;5078812;28;20208;-61
2022/07/09 11:37:53;;;;;;;3.42;0.98;;;30.20;51.90;;;;;;5080471;28;20204;-61
2022/07/09 11:40:21;;;;;;;2.50;1.27;;;30.00;52.50;;;;;;5079432;28;20215;-61
2022/07/09 11:42:49;;;;;;;3.05;1.10;;;29.90;52.90;;;;;;5079401;28;20278;-60
2022/07/09 11:45:20;;;;;;;4.10;1.60;;;29.90;54.70;;;;;;5079697;28;20605;-61
2022/07/09 11:47:47;;;;;;;3.47;1.20;;;29.60;55.10;;;;;;5080804;28;20204;-61
2022/07/09 11:50:15;;;;;;;2.70;1.10;;;29.50;55.50;;;;;;5081905;28;20577;-61
2022/07/09 11:52:46;;;;;;;2.90;1.45;;;29.40;55.80;;;;;;5081135;28;20227;-61
2022/07/09 11:55:16;;;;;;;3.70;1.10;;;29.40;55.80;;;;;;5076673;28;20589;-62
2022/07/09 11:57:53;;;;;;;2.00;0.98;;;29.40;57.10;;;;;;5076572;28;20205;-61
2022/07/09 12:00:25;;;;;;;2.40;1.00;;;29.30;57.30;;;;;;5076885;28;20369;-60
2022/07/09 12:02:52;;;;;;;2.45;1.20;;;29.10;57.40;;;;;;5076275;28;20229;-61
2022/07/09 12:05:27;;;;;;;4.53;1.13;;;28.80;57.70;;;;;;5075945;28;20590;-60
2022/07/09 12:07:54;;;;;;;5.40;1.20;;;28.50;58.20;;;;;;5076126;28;20212;-61
2022/07/09 12:10:28;;;;;;;2.47;0.95;;;28.40;58.60;;;;;;5075490;28;20593;-60
2022/07/09 12:12:55;;;;;;;3.85;1.10;;;28.20;59.80;;;;;;5076285;28;20227;-61
2022/07/09 12:15:22;;;;;;;1.85;1.10;;;27.80;61.00;;;;;;5076414;28;20209;-61
2022/07/09 12:17:54;;;;;;;1.92;1.02;;;27.70;60.80;;;;;;5076467;28;20664;-61
2022/07/09 12:20:21;;;;;;;2.45;1.17;;;27.70;60.60;;;;;;5076409;28;20672;-61
2022/07/09 12:22:48;;;;;;;1.88;1.10;;;27.70;60.40;;;;;;5075305;28;20228;-61
2022/07/09 12:25:15;;;;;;;3.50;1.02;;;27.60;60.40;;;;;;5075598;28;20236;-61
2022/07/09 12:27:43;;;;;;;3.13;1.45;;;27.60;60.50;;;;;;5077022;28;20213;-61
2022/07/09 12:30:10;;;;;;;2.92;1.17;;;27.90;59.80;;;;;;5076581;28;20287;-61
2022/07/09 12:32:37;;;;;;;1.92;0.90;;;28.20;58.30;;;;;;5075082;28;20225;-61
2022/07/09 12:35:05;;;;;;;2.22;0.80;;;28.10;59.10;;;;;;5078287;28;20215;-62
2022/07/09 12:37:32;;;;;;;3.25;1.20;;;28.00;58.70;;;;;;5083089;28;20208;-61
2022/07/09 12:39:58;;;;;;;2.38;1.40;;;27.80;59.20;;;;;;5082346;28;20295;-62
2022/07/09 12:42:25;;;;;;;1.10;0.57;;;27.90;59.80;;;;;;5080767;28;20307;-61
2022/07/09 12:44:53;;;;;;;2.58;0.90;;;28.00;59.00;;;;;;5079884;28;20213;-61
2022/07/09 12:47:20;;;;;;;3.38;1.20;;;27.90;59.20;;;;;;5077580;28;20216;-61
2022/07/09 12:49:47;;;;;;;3.60;1.00;;;27.90;59.00;;;;;;5077613;28;20220;-62
2022/07/09 12:52:13;;;;;;;3.58;1.02;;;28.10;59.10;;;;;;5076908;28;20229;-61